createdAt,value
2022-08-05T00:01:36.337Z,17.94
2022-08-05T00:04:18.443Z,17.98
2022-08-05T00:06:51.679Z,17.92
2022-08-05T00:09:20.755Z,17.67
2022-08-05T00:11:56.021Z,17.27
2022-08-05T00:14:31.466Z,16.98
2022-08-05T00:17:01.942Z,17.06
2022-08-05T00:19:33.605Z,16.99
2022-08-05T00:22:12.975Z,16.98
2022-08-05T00:24:42.870Z,17.42
2022-08-05T00:27:14.165Z,17.50
2022-08-05T00:29:45.673Z,17.17
2022-08-05T00:32:15.270Z,17.18
2022-08-05T00:35:05.676Z,17.26
2022-08-05T00:37:53.157Z,17.34
2022-08-05T00:40:29.254Z,17.32
2022-08-05T00:43:00.693Z,17.14
2022-08-05T00:45:43.138Z,17.14
2022-08-05T00:48:27.553Z,17.27
2022-08-05T00:51:00.113Z,17.51
2022-08-05T00:54:00.133Z,17.63
2022-08-05T00:56:26.310Z,17.45
2022-08-05T00:58:56.309Z,17.48
2022-08-05T01:01:42.660Z,17.54
2022-08-05T01:04:15.850Z,17.50
2022-08-05T01:06:48.898Z,17.28
2022-08-05T01:09:20.540Z,17.20
2022-08-05T01:11:53.284Z,17.18
2022-08-05T01:14:49.592Z,17.24
2022-08-05T01:17:30.231Z,17.02
2022-08-05T01:20:15.268Z,16.79
2022-08-05T01:23:23.519Z,16.89
2022-08-05T01:26:28.769Z,16.83
2022-08-05T01:29:10.401Z,16.72
2022-08-05T01:31:49.743Z,16.43
2022-08-05T01:34:50.194Z,16.21
2022-08-05T01:37:44.417Z,16.15
2022-08-05T01:40:17.770Z,16.23
2022-08-05T01:42:48.839Z,16.13
2022-08-05T01:45:18.349Z,16.18
2022-08-05T01:47:54.601Z,16.20
2022-08-05T01:50:32.450Z,16.27
2022-08-05T01:53:04.981Z,16.10
2022-08-05T01:55:36.106Z,16.06
2022-08-05T01:58:15.510Z,16.10
2022-08-05T02:00:49.117Z,16.02
2022-08-05T02:03:31.795Z,16.01
2022-08-05T02:06:33.512Z,15.88
2022-08-05T02:08:57.920Z,15.75
2022-08-05T02:11:33.075Z,15.62
2022-08-05T02:14:28.816Z,15.43
2022-08-05T02:17:08.488Z,15.47
2022-08-05T02:19:51.391Z,15.45
2022-08-05T02:22:29.866Z,15.41
2022-08-05T02:25:06.472Z,15.39
2022-08-05T02:27:58.082Z,15.28
2022-08-05T02:30:40.570Z,15.16
2022-08-05T02:33:36.080Z,14.95
2022-08-05T02:36:13.630Z,14.87
2022-08-05T02:38:53.545Z,14.87
2022-08-05T02:41:28.826Z,14.85
2022-08-05T02:44:13.321Z,14.79
2022-08-05T02:46:59.928Z,14.68
2022-08-05T02:49:35.996Z,14.59
2022-08-05T02:52:08.976Z,14.35
2022-08-05T02:54:41.359Z,14.27
2022-08-05T02:58:12.236Z,14.20
2022-08-05T03:00:04.400Z,14.12
2022-08-05T03:02:43.546Z,13.98
2022-08-05T03:05:14.060Z,13.90
2022-08-05T03:08:06.897Z,13.78
2022-08-05T03:10:33.968Z,13.65
2022-08-05T03:15:29.599Z,13.40
2022-08-05T03:17:59.498Z,13.30
2022-08-05T03:20:28.402Z,13.28
2022-08-05T03:22:58.199Z,13.20
2022-08-05T03:25:33.821Z,13.11
2022-08-05T03:28:18.776Z,12.96
2022-08-05T03:30:50.866Z,12.92
2022-08-05T03:33:20.397Z,12.82
2022-08-05T03:35:50.731Z,12.79
2022-08-05T03:38:23.846Z,12.68
2022-08-05T03:41:08.206Z,12.68
2022-08-05T03:44:08.123Z,12.57
2022-08-05T03:46:29.485Z,12.45
2022-08-05T03:48:59.307Z,12.38
2022-08-05T03:52:38.840Z,12.34
2022-08-05T03:55:53.009Z,12.29
2022-08-05T03:57:41.877Z,12.28
2022-08-05T04:00:16.283Z,12.26
2022-08-05T04:02:58.284Z,12.19
2022-08-05T04:05:37.177Z,12.28
2022-08-05T04:08:14.567Z,12.15
2022-08-05T04:10:46.684Z,12.07
2022-08-05T04:13:19.672Z,12.06
2022-08-05T04:16:03.243Z,12.00
2022-08-05T04:18:34.234Z,12.01
2022-08-05T04:21:04.273Z,11.94
2022-08-05T04:24:05.875Z,11.90
2022-08-05T04:26:23.101Z,11.86
2022-08-05T04:28:52.202Z,11.85
2022-08-05T04:31:21.849Z,11.79
2022-08-05T04:34:18.439Z,11.75
2022-08-05T04:36:49.548Z,11.64
2022-08-05T04:39:19.276Z,11.64
2022-08-05T04:41:50.951Z,11.71
2022-08-05T04:44:29.502Z,11.62
2022-08-05T04:47:09.534Z,11.51
2022-08-05T04:50:02.189Z,11.50
2022-08-05T04:52:34.062Z,11.39
2022-08-05T04:55:14.758Z,11.37
2022-08-05T04:57:47.709Z,11.32
2022-08-05T05:00:17.419Z,11.33
2022-08-05T05:02:46.028Z,11.33
2022-08-05T05:05:26.162Z,11.30
2022-08-05T05:08:03.226Z,11.26
2022-08-05T05:10:35.043Z,11.36
2022-08-05T05:13:04.664Z,11.31
2022-08-05T05:16:01.850Z,11.25
2022-08-05T05:18:31.274Z,11.33
2022-08-05T05:21:03.587Z,11.30
2022-08-05T05:23:39.015Z,11.28
2022-08-05T05:26:28.308Z,11.38
2022-08-05T05:29:02.283Z,11.34
2022-08-05T05:34:01.875Z,11.33
2022-08-05T05:36:32.607Z,11.34
2022-08-05T05:39:09.463Z,11.26
2022-08-05T05:41:40.573Z,11.21
2022-08-05T05:44:35.638Z,11.27
2022-08-05T05:47:04.033Z,11.27
2022-08-05T05:49:33.806Z,11.23
2022-08-05T05:52:05.943Z,11.27
2022-08-05T05:54:50.197Z,11.40
2022-08-05T05:57:20.714Z,11.44
2022-08-05T05:59:49.500Z,11.57
2022-08-05T06:02:32.805Z,11.60
2022-08-05T06:05:10.143Z,11.59
2022-08-05T06:08:01.156Z,11.63
2022-08-05T06:10:34.458Z,11.57
2022-08-05T06:13:06.590Z,11.61
2022-08-05T06:16:29.541Z,11.65
2022-08-05T06:18:31.538Z,11.71
2022-08-05T06:21:01.192Z,11.74
2022-08-05T06:23:32.255Z,11.72
2022-08-05T06:28:50.509Z,11.74
2022-08-05T06:31:21.734Z,11.67
2022-08-05T06:34:07.385Z,11.67
2022-08-05T06:36:57.366Z,11.69
2022-08-05T06:39:27.028Z,11.67
2022-08-05T06:42:00.658Z,11.59
2022-08-05T06:44:29.539Z,11.28
2022-08-05T06:46:58.466Z,11.09
2022-08-05T06:50:00.453Z,10.94
2022-08-05T06:52:36.710Z,10.86
2022-08-05T06:55:06.514Z,10.81
2022-08-05T06:58:03.933Z,10.79
2022-08-05T07:00:24.731Z,10.74
2022-08-05T07:02:54.310Z,10.65
2022-08-05T07:05:37.030Z,10.51
2022-08-05T07:08:06.250Z,10.29
2022-08-05T07:10:39.273Z,10.16
2022-08-05T07:13:57.648Z,10.02
2022-08-05T07:17:57.135Z,9.99
2022-08-05T07:22:28.520Z,9.92
2022-08-05T07:25:21.850Z,9.91
2022-08-05T07:27:57.793Z,9.87
2022-08-05T07:30:38.328Z,9.84
2022-08-05T07:33:16.435Z,9.80
2022-08-05T07:36:02.809Z,9.79
2022-08-05T07:38:43.074Z,9.75
2022-08-05T07:42:14.353Z,9.73
2022-08-05T07:44:19.184Z,9.67
2022-08-05T07:46:50.299Z,9.66
2022-08-05T07:49:20.037Z,9.59
2022-08-05T07:51:53.649Z,9.53
2022-08-05T07:54:31.002Z,9.55
2022-08-05T07:57:17.612Z,9.51
2022-08-05T07:59:53.816Z,9.45
2022-08-05T08:02:31.440Z,9.47
2022-08-05T08:05:19.182Z,9.45
2022-08-05T08:07:59.849Z,9.43
2022-08-05T08:10:29.293Z,9.47
2022-08-05T08:12:59.098Z,9.49
2022-08-05T08:16:33.469Z,9.46
2022-08-05T08:18:21.877Z,9.49
2022-08-05T08:21:01.795Z,9.46
2022-08-05T08:24:01.279Z,9.42
2022-08-05T08:26:26.740Z,9.39
2022-08-05T08:29:21.960Z,9.39
2022-08-05T08:31:48.395Z,9.34
2022-08-05T08:34:29.885Z,9.31
2022-08-05T08:37:04.893Z,9.30
2022-08-05T08:39:37.635Z,9.30
2022-08-05T08:42:33.700Z,9.27
2022-08-05T08:45:24.938Z,9.27
2022-08-05T08:48:07.530Z,9.23
2022-08-05T08:51:03.492Z,9.22
2022-08-05T08:53:30.186Z,9.17
2022-08-05T08:56:04.824Z,9.15
2022-08-05T08:58:43.839Z,9.15
2022-08-05T09:01:18.047Z,9.16
2022-08-05T09:03:55.437Z,9.14
2022-08-05T09:06:28.538Z,9.12
2022-08-05T09:09:01.723Z,9.12
2022-08-05T09:11:53.125Z,9.09
2022-08-05T09:14:59.202Z,9.09
2022-08-05T09:17:42.481Z,9.07
2022-08-05T09:20:08.372Z,9.06
2022-08-05T09:23:07.698Z,9.10
2022-08-05T09:26:00.228Z,9.10
2022-08-05T09:28:31.866Z,9.06
2022-08-05T09:31:44.096Z,9.05
2022-08-05T09:34:00.721Z,9.03
2022-08-05T09:36:45.814Z,9.00
2022-08-05T09:39:41.450Z,9.03
2022-08-05T09:42:24.557Z,9.01
2022-08-05T09:45:03.373Z,9.01
2022-08-05T09:47:54.965Z,9.02
2022-08-05T09:50:44.573Z,9.00
2022-08-05T09:53:23.113Z,9.02
2022-08-05T09:56:04.744Z,9.08
2022-08-05T09:58:41.832Z,9.07
2022-08-05T10:01:22.557Z,9.09
2022-08-05T10:04:10.342Z,9.08
2022-08-05T10:06:54.847Z,9.03
2022-08-05T10:09:29.607Z,9.04
2022-08-05T10:12:18.460Z,9.01
2022-08-05T10:15:20.945Z,8.99
2022-08-05T10:18:24.111Z,8.98
2022-08-05T10:20:59.114Z,8.93
2022-08-05T10:23:59.008Z,8.93
2022-08-05T10:26:32.272Z,8.94
2022-08-05T10:29:01.627Z,8.92
2022-08-05T10:32:52.205Z,8.91
2022-08-05T10:34:18.841Z,8.91
2022-08-05T10:36:54.995Z,8.91
2022-08-05T10:39:59.236Z,8.89
2022-08-05T10:42:33.545Z,8.84
2022-08-05T10:45:21.135Z,8.88
2022-08-05T10:48:30.327Z,8.89
2022-08-05T10:51:22.062Z,8.90
2022-08-05T10:54:23.172Z,8.91
2022-08-05T10:56:53.558Z,8.92
2022-08-05T11:00:02.726Z,8.93
2022-08-05T11:02:38.451Z,8.96
2022-08-05T11:05:11.696Z,8.98
2022-08-05T11:08:21.679Z,8.96
2022-08-05T11:11:01.068Z,8.98
2022-08-05T11:13:54.789Z,8.99
2022-08-05T11:16:34.031Z,9.00
2022-08-05T11:20:11.339Z,9.01
2022-08-05T11:22:44.462Z,9.01
2022-08-05T11:26:05.371Z,9.01
2022-08-05T11:28:28.434Z,9.01
2022-08-05T11:31:00.165Z,9.02
2022-08-05T11:33:56.555Z,9.03
2022-08-05T11:36:53.241Z,9.05
2022-08-05T11:40:00.741Z,9.04
2022-08-05T11:42:37.762Z,9.08
2022-08-05T11:45:23.548Z,9.11
2022-08-05T11:47:59.976Z,9.12
2022-08-05T11:50:29.694Z,9.07
2022-08-05T11:52:58.531Z,9.11
2022-08-05T11:55:31.978Z,9.06
2022-08-05T11:58:10.480Z,9.05
2022-08-05T12:00:44.388Z,9.05
2022-08-05T12:03:29.086Z,9.05
2022-08-05T12:06:10.092Z,9.03
2022-08-05T12:08:53.990Z,9.08
2022-08-05T12:11:40.244Z,9.07
2022-08-05T12:14:11.016Z,9.03
2022-08-05T12:16:45.649Z,9.05
2022-08-05T12:20:16.671Z,9.05
2022-08-05T12:22:09.481Z,9.08
2022-08-05T12:24:43.627Z,9.15
2022-08-05T12:27:26.741Z,9.15
2022-08-05T12:30:03.987Z,9.17
2022-08-05T12:32:39.719Z,9.20
2022-08-05T12:35:09.697Z,9.18
2022-08-05T12:37:38.927Z,9.19
2022-08-05T12:40:20.646Z,9.24
2022-08-05T12:42:55.702Z,9.29
2022-08-05T12:45:42.555Z,9.27
2022-08-05T12:48:26.989Z,9.28
2022-08-05T12:51:21.896Z,9.31
2022-08-05T12:54:16.969Z,9.31
2022-08-05T12:56:57.888Z,9.39
2022-08-05T13:00:08.315Z,9.34
2022-08-05T13:02:27.252Z,9.33
2022-08-05T13:04:59.068Z,9.35
2022-08-05T13:07:57.367Z,9.38
2022-08-05T13:10:19.951Z,9.44
2022-08-05T13:12:51.014Z,9.44
2022-08-05T13:15:41.541Z,9.47
2022-08-05T13:18:20.682Z,9.51
2022-08-05T13:20:50.455Z,9.54
2022-08-05T13:23:22.577Z,9.48
2022-08-05T13:25:58.958Z,9.50
2022-08-05T13:28:32.160Z,9.51
2022-08-05T13:31:11.185Z,9.54
2022-08-05T13:34:21.627Z,9.54
2022-08-05T13:36:32.390Z,9.58
2022-08-05T13:39:01.027Z,9.55
2022-08-05T13:41:38.339Z,9.54
2022-08-05T13:44:10.108Z,9.55
2022-08-05T13:47:01.820Z,9.56
2022-08-05T13:49:27.089Z,9.55
2022-08-05T13:51:59.820Z,9.56
2022-08-05T13:54:28.604Z,9.56
2022-08-05T13:57:00.013Z,9.58
2022-08-05T13:59:30.745Z,9.61
2022-08-05T14:02:00.877Z,9.58
2022-08-05T14:04:55.687Z,9.61
2022-08-05T14:07:59.516Z,9.75
2022-08-05T14:10:34.732Z,9.80
2022-08-05T14:13:04.308Z,9.82
2022-08-05T14:16:08.566Z,9.84
2022-08-05T14:18:23.896Z,9.85
2022-08-05T14:20:55.086Z,9.84
2022-08-05T14:23:26.275Z,9.86
2022-08-05T14:25:58.833Z,9.89
2022-08-05T14:28:32.085Z,9.88
2022-08-05T14:31:01.837Z,9.90
2022-08-05T14:33:56.487Z,9.93
2022-08-05T14:36:21.597Z,9.90
2022-08-05T14:38:51.063Z,9.91
2022-08-05T14:41:20.046Z,9.92
2022-08-05T14:43:59.480Z,9.93
2022-08-05T14:46:35.438Z,9.93
2022-08-05T14:49:07.272Z,9.97
2022-08-05T14:51:38.378Z,9.97
2022-08-05T14:54:30.140Z,10.01
2022-08-05T14:56:56.879Z,10.02
2022-08-05T14:59:25.532Z,10.03
2022-08-05T15:01:59.987Z,10.07
2022-08-05T15:04:29.421Z,10.07
2022-08-05T15:06:58.166Z,10.02
2022-08-05T15:09:52.367Z,10.06
2022-08-05T15:12:16.957Z,10.08
2022-08-05T15:14:50.043Z,10.19
2022-08-05T15:17:46.221Z,10.21
2022-08-05T15:20:18.665Z,10.21
2022-08-05T15:22:54.045Z,10.23
2022-08-05T15:25:52.812Z,10.23
2022-08-05T15:28:16.159Z,10.23
2022-08-05T15:30:46.651Z,10.29
2022-08-05T15:33:56.656Z,10.30
2022-08-05T15:36:17.617Z,10.46
2022-08-05T15:40:42.658Z,10.63
2022-08-05T15:41:55.410Z,10.68
2022-08-05T15:44:25.561Z,10.79
2022-08-05T15:46:56.344Z,10.87
2022-08-05T15:49:53.781Z,11.06
2022-08-05T15:52:16.589Z,11.12
2022-08-05T15:54:58.340Z,11.43
2022-08-05T15:57:32.967Z,11.72
2022-08-05T16:00:02.287Z,11.75
2022-08-05T16:02:31.193Z,11.74
2022-08-05T16:04:59.747Z,11.75
2022-08-05T16:07:29.442Z,11.64
2022-08-05T16:09:58.561Z,11.71
2022-08-05T16:12:27.222Z,11.81
2022-08-05T16:14:56.019Z,11.66
2022-08-05T16:17:25.503Z,11.83
2022-08-05T16:20:04.716Z,11.89
2022-08-05T16:22:40.112Z,12.01
2022-08-05T16:25:11.380Z,12.09
2022-08-05T16:27:59.848Z,11.97
2022-08-05T16:30:29.960Z,12.13
2022-08-05T16:33:01.925Z,12.18
2022-08-05T16:35:33.723Z,12.51
2022-08-05T16:38:18.713Z,12.56
2022-08-05T16:41:00.299Z,12.54
2022-08-05T16:43:35.111Z,12.65
2022-08-05T16:46:24.174Z,12.52
2022-08-05T16:48:53.633Z,12.50
2022-08-05T16:51:24.611Z,12.52
2022-08-05T16:54:05.179Z,12.50
2022-08-05T16:56:43.972Z,12.77
2022-08-05T16:59:14.610Z,12.64
2022-08-05T17:01:54.391Z,12.71
2022-08-05T17:04:27.139Z,12.86
2022-08-05T17:07:00.175Z,12.57
2022-08-05T17:09:30.568Z,12.59
2022-08-05T17:12:07.792Z,12.66
2022-08-05T17:14:40.482Z,12.81
2022-08-05T17:17:14.920Z,12.75
2022-08-05T17:19:46.495Z,12.83
2022-08-05T17:22:25.619Z,12.97
2022-08-05T17:24:57.957Z,12.84
2022-08-05T17:27:33.575Z,12.93
2022-08-05T17:30:11.822Z,13.12
2022-08-05T17:32:47.282Z,13.15
2022-08-05T17:35:20.717Z,13.04
2022-08-05T17:37:49.602Z,13.11
2022-08-05T17:40:22.693Z,13.15
2022-08-05T17:42:53.014Z,13.22
2022-08-05T17:45:29.713Z,13.43
2022-08-05T17:48:09.039Z,13.50
2022-08-05T17:50:40.006Z,13.58
2022-08-05T17:53:09.999Z,13.68
2022-08-05T17:55:39.922Z,13.59
2022-08-05T17:58:16.435Z,13.59
2022-08-05T18:00:50.598Z,13.52
2022-08-05T18:06:11.275Z,13.67
2022-08-05T18:08:44.412Z,13.55
2022-08-05T18:11:24.312Z,13.68
2022-08-05T18:14:06.793Z,13.87
2022-08-05T18:16:49.609Z,13.80
2022-08-05T18:19:22.994Z,14.15
2022-08-05T18:22:09.470Z,14.33
2022-08-05T18:24:40.811Z,14.52
2022-08-05T18:27:18.094Z,14.79
2022-08-05T18:29:53.618Z,14.86
2022-08-05T18:32:27.603Z,15.03
2022-08-05T18:34:57.488Z,14.72
2022-08-05T18:37:33.435Z,15.03
2022-08-05T18:40:34.030Z,14.98
2022-08-05T18:42:52.260Z,15.23
2022-08-05T18:45:21.257Z,15.25
2022-08-05T18:47:56.295Z,15.38
2022-08-05T18:50:46.511Z,15.33
2022-08-05T18:53:20.626Z,15.13
2022-08-05T18:55:53.255Z,15.04
2022-08-05T18:58:27.280Z,14.84
2022-08-05T19:00:58.258Z,15.00
2022-08-05T19:03:52.750Z,14.54
2022-08-05T19:06:22.356Z,14.90
2022-08-05T19:09:02.390Z,14.90
2022-08-05T19:11:56.710Z,14.73
2022-08-05T19:14:44.512Z,15.03
2022-08-05T19:17:13.014Z,14.90
2022-08-05T19:19:44.160Z,14.98
2022-08-05T19:22:22.693Z,15.23
2022-08-05T19:25:02.659Z,15.61
2022-08-05T19:27:31.473Z,15.58
2022-08-05T19:30:00.418Z,15.64
2022-08-05T19:32:32.208Z,15.33
2022-08-05T19:35:05.632Z,16.35
2022-08-05T19:38:04.636Z,16.14
2022-08-05T19:40:25.077Z,16.40
2022-08-05T19:43:00.692Z,15.73
2022-08-05T19:45:33.158Z,16.03
2022-08-05T19:48:06.050Z,16.00
2022-08-05T19:50:34.791Z,15.65
2022-08-05T19:53:09.438Z,15.52
2022-08-05T19:56:12.430Z,15.45
2022-08-05T19:58:30.099Z,15.73
2022-08-05T20:00:59.379Z,15.47
2022-08-05T20:03:40.512Z,15.78
2022-08-05T20:06:15.699Z,15.53
2022-08-05T20:08:59.855Z,15.78
2022-08-05T20:11:37.727Z,15.78
2022-08-05T20:14:12.508Z,15.74
2022-08-05T20:16:43.483Z,15.83
2022-08-05T20:19:12.168Z,15.91
2022-08-05T20:21:43.347Z,15.71
2022-08-05T20:24:13.401Z,15.66
2022-08-05T20:26:44.743Z,15.78
2022-08-05T20:29:27.597Z,15.82
2022-08-05T20:31:58.339Z,15.70
2022-08-05T20:34:28.802Z,16.11
2022-08-05T20:36:57.612Z,16.26
2022-08-05T20:39:26.356Z,16.53
2022-08-05T20:42:06.748Z,17.04
2022-08-05T20:44:39.600Z,16.64
2022-08-05T20:47:09.163Z,16.40
2022-08-05T20:49:39.879Z,16.18
2022-08-05T20:52:10.639Z,16.42
2022-08-05T20:54:55.131Z,16.79
2022-08-05T20:57:43.942Z,16.91
2022-08-05T21:00:40.221Z,17.48
2022-08-05T21:03:07.581Z,17.57
2022-08-05T21:05:53.784Z,17.41
2022-08-05T21:08:41.919Z,17.68
2022-08-05T21:12:09.588Z,17.15
2022-08-05T21:14:05.390Z,16.89
2022-08-05T21:16:34.907Z,16.55
2022-08-05T21:19:03.945Z,16.72
2022-08-05T21:21:43.920Z,16.54
2022-08-05T21:24:19.404Z,16.53
2022-08-05T21:26:58.342Z,16.87
2022-08-05T21:29:32.108Z,17.30
2022-08-05T21:32:02.863Z,16.99
2022-08-05T21:34:32.932Z,16.95
2022-08-05T21:37:05.803Z,16.77
2022-08-05T21:39:40.482Z,16.80
2022-08-05T21:42:30.729Z,16.69
2022-08-05T21:44:59.828Z,16.96
2022-08-05T21:47:55.715Z,17.04
2022-08-05T21:50:18.310Z,16.69
2022-08-05T21:52:47.303Z,16.98
2022-08-05T21:55:16.007Z,17.03
2022-08-05T21:57:44.657Z,17.15
2022-08-05T22:00:15.787Z,17.06
2022-08-05T22:02:44.753Z,17.16
2022-08-05T22:05:14.518Z,16.65
2022-08-05T22:07:59.161Z,16.92
2022-08-05T22:10:31.153Z,16.71
2022-08-05T22:14:05.100Z,16.49
2022-08-05T22:16:00.814Z,16.85
2022-08-05T22:18:36.863Z,17.30
2022-08-05T22:21:17.885Z,17.39
2022-08-05T22:24:12.751Z,17.42
2022-08-05T22:27:00.368Z,17.24
2022-08-05T22:29:35.079Z,17.32
2022-08-05T22:32:03.750Z,17.03
2022-08-05T22:34:33.780Z,16.94
2022-08-05T22:37:03.670Z,16.64
2022-08-05T22:39:34.145Z,16.94
2022-08-05T22:42:11.260Z,16.99
2022-08-05T22:44:48.395Z,17.18
2022-08-05T22:47:29.634Z,17.16
2022-08-05T22:50:20.747Z,17.33
2022-08-05T22:52:51.534Z,17.38
2022-08-05T22:55:21.962Z,17.24
2022-08-05T22:57:52.837Z,17.33
2022-08-05T23:00:23.357Z,17.39
2022-08-05T23:02:54.722Z,17.31
2022-08-05T23:05:23.988Z,17.09
2022-08-05T23:07:53.524Z,17.19
2022-08-05T23:10:23.820Z,17.10
2022-08-05T23:12:55.428Z,17.33
2022-08-05T23:15:29.494Z,17.37
2022-08-05T23:18:03.181Z,17.27
2022-08-05T23:20:37.291Z,17.37
2022-08-05T23:23:08.947Z,17.16
2022-08-05T23:25:52.816Z,17.38
2022-08-05T23:28:28.551Z,17.18
2022-08-05T23:31:03.707Z,17.24
2022-08-05T23:34:04.732Z,17.56
2022-08-05T23:36:40.324Z,17.27
2022-08-05T23:39:32.275Z,17.39
2022-08-05T23:42:08.628Z,17.42
2022-08-05T23:44:42.985Z,17.46
2022-08-05T23:47:14.513Z,17.30
2022-08-05T23:49:46.646Z,17.33
2022-08-05T23:52:36.160Z,17.23
2022-08-05T23:55:18.223Z,17.21
2022-08-05T23:57:51.250Z,17.08
